Time;durP1;ratioP1;P1;durP2;ratioP2;P2;SDS_P1;SDS_P2;PMS_P1;PMS_P2;Temp;Humidity;BMP_temperature;BMP_pressure;BME280_temperature;BME280_humidity;BME280_pressure;Samples;Min_cycle;Max_cycle;Signal;HPM_P1;HPM_P2
2023/10/16 00:02:11;;;;;;;2.53;0.75;;;6.60;99.90;;;;;;2603313;54;20790;31
2023/10/16 00:04:47;;;;;;;2.88;0.50;;;6.70;99.90;;;;;;2603439;54;20048;31
2023/10/16 00:07:27;;;;;;;1.13;0.50;;;6.70;99.90;;;;;;2603146;54;20034;31
2023/10/16 00:10:11;;;;;;;1.92;0.70;;;6.70;99.90;;;;;;2602375;54;20983;31
2023/10/16 00:12:45;;;;;;;4.30;0.70;;;6.70;99.90;;;;;;2602575;46;22414;31
2023/10/16 00:15:21;;;;;;;6.15;0.52;;;6.80;99.90;;;;;;2621483;46;20834;31
2023/10/16 00:18:00;;;;;;;3.95;0.70;;;6.80;99.90;;;;;;2701815;39;21397;31
2023/10/16 00:20:36;;;;;;;2.25;0.50;;;6.90;99.90;;;;;;2621789;46;20034;31
2023/10/16 00:23:13;;;;;;;2.58;0.45;;;6.90;99.90;;;;;;2603364;54;20030;31
2023/10/16 00:25:50;;;;;;;5.05;0.45;;;6.90;99.90;;;;;;2603352;54;20089;31
2023/10/16 00:28:30;;;;;;;1.15;0.70;;;6.90;99.90;;;;;;2621298;46;20009;31
2023/10/16 00:31:08;;;;;;;4.35;0.50;;;6.90;99.90;;;;;;2603136;54;20967;31
2023/10/16 00:33:48;;;;;;;3.92;0.50;;;7.00;99.90;;;;;;2603190;54;20848;31
2023/10/16 00:36:24;;;;;;;3.53;0.50;;;7.00;99.90;;;;;;2603133;54;20852;31
2023/10/16 00:39:12;;;;;;;3.90;1.17;;;7.00;99.90;;;;;;2603333;54;20116;31
2023/10/16 00:41:50;;;;;;;2.55;0.50;;;7.00;99.90;;;;;;2603291;54;20053;31
2023/10/16 00:44:33;;;;;;;;;;;7.00;99.90;;;;;;2621952;46;20925;31
2023/10/16 00:47:12;;;;;;;3.60;0.82;;;7.00;99.90;;;;;;2603147;54;19989;31
2023/10/16 00:49:54;;;;;;;2.47;0.40;;;7.10;99.90;;;;;;2603017;54;20926;31
2023/10/16 00:52:35;;;;;;;3.15;1.00;;;7.00;99.90;;;;;;2603014;54;20031;31
2023/10/16 00:55:11;;;;;;;1.90;1.10;;;7.00;99.90;;;;;;2621789;46;20899;31
2023/10/16 00:57:48;;;;;;;2.10;0.90;;;7.00;99.90;;;;;;2603284;54;20022;31
2023/10/16 01:02:59;;;;;;;1.70;0.60;;;7.00;99.90;;;;;;2603235;54;20049;31
2023/10/16 01:05:42;;;;;;;4.30;0.63;;;7.00;99.90;;;;;;2603115;54;20026;31
2023/10/16 01:08:19;;;;;;;2.50;0.60;;;7.00;99.90;;;;;;2602406;54;20888;31
2023/10/16 01:10:57;;;;;;;1.98;0.50;;;7.00;99.90;;;;;;2603007;54;20940;31
2023/10/16 01:13:38;;;;;;;4.97;0.60;;;6.90;99.90;;;;;;2701409;39;20628;31
2023/10/16 01:16:13;;;;;;;3.35;0.47;;;6.90;99.90;;;;;;2602983;54;20097;31
2023/10/16 01:18:49;;;;;;;9.70;0.80;;;6.80;99.90;;;;;;2603206;54;20030;31
2023/10/16 01:21:27;;;;;;;5.85;0.77;;;6.80;99.90;;;;;;2603245;54;20057;31
2023/10/16 01:24:12;;;;;;;3.67;0.70;;;6.70;99.90;;;;;;2621451;46;20034;31
2023/10/16 01:26:49;;;;;;;2.17;0.43;;;6.70;99.90;;;;;;2621608;46;20830;31
2023/10/16 01:29:25;;;;;;;3.70;0.60;;;6.60;99.90;;;;;;2603101;54;20023;31
2023/10/16 01:32:00;;;;;;;3.65;0.73;;;6.60;99.90;;;;;;2791250;31;20612;31
2023/10/16 01:34:41;;;;;;;3.40;1.10;;;6.50;99.90;;;;;;2603129;54;20026;31
2023/10/16 01:37:19;;;;;;;5.40;0.40;;;6.40;99.90;;;;;;2602882;54;20031;31
2023/10/16 01:40:13;;;;;;;3.00;0.40;;;6.40;99.90;;;;;;2603027;54;20927;31
2023/10/16 01:42:53;;;;;;;1.30;0.55;;;6.40;99.90;;;;;;2602853;54;20149;31
2023/10/16 01:45:30;;;;;;;2.25;0.40;;;6.30;99.90;;;;;;2602830;54;20596;31
2023/10/16 01:48:11;;;;;;;1.35;0.25;;;6.30;99.90;;;;;;2602986;54;20056;31
2023/10/16 01:50:49;;;;;;;2.15;0.40;;;6.20;99.90;;;;;;2602948;54;20571;31
2023/10/16 01:53:26;;;;;;;2.38;0.60;;;6.20;99.90;;;;;;2603037;54;20030;31
2023/10/16 01:56:15;;;;;;;1.20;0.40;;;6.20;99.90;;;;;;2621364;47;20027;31
2023/10/16 01:58:52;;;;;;;1.08;0.30;;;6.10;99.90;;;;;;2602915;54;20959;31
2023/10/16 02:01:29;;;;;;;1.05;0.30;;;6.10;99.90;;;;;;2602583;54;20045;31
2023/10/16 02:04:06;;;;;;;1.85;0.40;;;6.10;99.90;;;;;;2621445;47;20939;31
2023/10/16 02:06:43;;;;;;;2.58;0.60;;;6.10;99.90;;;;;;2621167;47;20860;31
2023/10/16 02:09:23;;;;;;;2.40;0.50;;;6.00;99.90;;;;;;2621455;47;20044;31
2023/10/16 02:12:02;;;;;;;1.27;0.55;;;5.90;99.90;;;;;;2602728;54;20825;31
2023/10/16 02:14:40;;;;;;;4.07;0.50;;;6.00;99.90;;;;;;2621201;47;20889;31
2023/10/16 02:17:19;;;;;;;4.38;0.50;;;5.90;99.90;;;;;;2602410;54;20038;31
2023/10/16 02:19:55;;;;;;;7.27;0.57;;;5.90;99.90;;;;;;2603552;54;20089;31
2023/10/16 02:22:32;;;;;;;1.60;0.30;;;5.90;99.90;;;;;;2603498;54;20935;31
2023/10/16 02:25:17;;;;;;;4.45;0.43;;;5.90;99.90;;;;;;2622078;46;20026;31
2023/10/16 02:27:58;;;;;;;3.25;0.50;;;5.90;99.90;;;;;;2603779;54;20081;31
2023/10/16 02:30:38;;;;;;;0.55;0.22;;;5.90;99.90;;;;;;2603691;54;20023;31
2023/10/16 02:33:22;;;;;;;1.50;0.40;;;5.90;99.90;;;;;;2603598;54;20030;31
2023/10/16 02:35:58;;;;;;;1.70;0.50;;;5.90;99.90;;;;;;2603803;54;20546;31
2023/10/16 02:38:34;;;;;;;2.20;0.45;;;6.00;99.90;;;;;;2622051;46;20068;31
2023/10/16 02:41:11;;;;;;;2.45;0.30;;;6.00;99.90;;;;;;2603540;54;20029;31
2023/10/16 02:43:51;;;;;;;0.88;0.50;;;6.00;99.90;;;;;;2603388;54;20085;31
2023/10/16 02:46:30;;;;;;;1.10;0.30;;;6.00;99.90;;;;;;2603536;54;20034;31
2023/10/16 02:49:10;;;;;;;1.58;0.60;;;6.00;99.90;;;;;;2621815;46;20026;31
2023/10/16 02:51:51;;;;;;;2.53;0.82;;;6.00;99.90;;;;;;2603553;54;20762;31
2023/10/16 02:54:31;;;;;;;2.85;0.60;;;6.00;99.90;;;;;;2603543;54;20546;31
2023/10/16 02:57:07;;;;;;;4.18;0.80;;;6.00;99.90;;;;;;2622045;46;20022;31
2023/10/16 02:59:45;;;;;;;2.13;0.43;;;6.00;99.90;;;;;;2603501;54;20968;31
2023/10/16 03:02:22;;;;;;;7.15;0.70;;;6.00;99.90;;;;;;2622339;46;20045;31
2023/10/16 03:05:10;;;;;;;1.90;0.60;;;6.00;99.90;;;;;;2720664;39;20566;31
2023/10/16 03:07:46;;;;;;;1.27;0.50;;;6.00;99.90;;;;;;2621516;46;22389;31
2023/10/16 03:10:22;;;;;;;2.65;0.60;;;5.90;99.90;;;;;;2702153;39;20462;31
2023/10/16 03:13:05;;;;;;;2.55;0.60;;;5.90;99.90;;;;;;2603381;54;20796;31
2023/10/16 03:15:46;;;;;;;2.40;0.65;;;5.90;99.90;;;;;;2603551;54;20835;31
2023/10/16 03:18:22;;;;;;;4.40;0.60;;;5.80;99.90;;;;;;2602684;54;20027;31
2023/10/16 03:21:08;;;;;;;1.30;0.45;;;5.80;99.90;;;;;;2603301;54;20030;31
2023/10/16 03:23:49;;;;;;;3.50;0.40;;;5.70;99.90;;;;;;2603458;54;20574;31
2023/10/16 03:26:28;;;;;;;2.08;0.50;;;5.70;99.90;;;;;;2603296;54;20904;31
2023/10/16 03:29:06;;;;;;;1.70;0.50;;;5.70;99.90;;;;;;2603255;54;20048;31
2023/10/16 03:31:48;;;;;;;4.05;0.50;;;5.60;99.90;;;;;;2603414;54;20093;31
2023/10/16 03:34:26;;;;;;;2.35;0.70;;;5.60;99.90;;;;;;2603381;54;20816;31
2023/10/16 03:37:03;;;;;;;2.08;0.50;;;5.60;99.90;;;;;;2701785;39;20492;31
2023/10/16 03:39:41;;;;;;;2.60;0.80;;;5.60;99.90;;;;;;2603587;54;20896;31
2023/10/16 03:42:17;;;;;;;5.07;0.32;;;5.60;99.90;;;;;;2603295;54;20033;31
2023/10/16 03:44:53;;;;;;;1.07;0.50;;;5.50;99.90;;;;;;2701801;39;20519;31
2023/10/16 03:47:33;;;;;;;2.25;0.60;;;5.50;99.90;;;;;;2701929;39;20593;31
2023/10/16 03:50:13;;;;;;;2.60;0.63;;;5.40;99.90;;;;;;2603378;54;20044;31
2023/10/16 03:52:49;;;;;;;3.70;0.50;;;5.40;99.90;;;;;;2621752;46;20026;31
2023/10/16 03:55:26;;;;;;;2.55;1.00;;;5.40;99.90;;;;;;2603365;54;20031;31
2023/10/16 03:58:02;;;;;;;2.58;0.60;;;5.30;99.90;;;;;;2603455;54;20037;31
2023/10/16 04:00:50;;;;;;;2.83;0.77;;;5.30;99.90;;;;;;2603191;54;21366;31
2023/10/16 04:03:46;;;;;;;3.22;0.70;;;5.30;99.90;;;;;;2791656;31;20601;31
2023/10/16 04:06:22;;;;;;;4.33;1.10;;;5.30;99.90;;;;;;2603201;54;20023;31
2023/10/16 04:08:59;;;;;;;1.60;0.50;;;5.30;99.90;;;;;;2603257;54;21619;31
2023/10/16 04:11:37;;;;;;;4.13;0.80;;;5.30;99.90;;;;;;2603269;54;20069;31
2023/10/16 04:14:14;;;;;;;6.55;0.65;;;5.30;99.90;;;;;;2603341;54;21044;31
2023/10/16 04:16:54;;;;;;;1.77;0.93;;;5.20;99.90;;;;;;2621680;46;20089;31
2023/10/16 04:19:52;;;;;;;5.37;1.00;;;5.20;99.90;;;;;;2603152;54;20026;31
2023/10/16 04:22:25;;;;;;;2.47;0.90;;;5.20;99.90;;;;;;2603074;54;20050;31
2023/10/16 04:25:01;;;;;;;4.43;1.15;;;5.20;99.90;;;;;;2602839;54;20085;31
2023/10/16 04:27:34;;;;;;;3.42;1.10;;;5.20;99.90;;;;;;2621799;46;20030;31
2023/10/16 04:33:13;;;;;;;4.88;1.00;;;5.20;99.90;;;;;;2622012;46;20026;31
2023/10/16 04:36:49;;;;;;;8.47;1.67;;;5.10;99.90;;;;;;2603299;54;20042;31
2023/10/16 04:39:31;;;;;;;1.87;1.20;;;5.20;99.90;;;;;;2621834;46;19934;31
2023/10/16 04:47:24;;;;;;;5.45;1.63;;;5.20;99.90;;;;;;2603166;54;20050;31
2023/10/16 04:50:07;;;;;;;3.80;1.90;;;5.20;99.90;;;;;;2621538;46;20108;31
2023/10/16 04:58:47;;;;;;;6.20;1.60;;;5.30;99.90;;;;;;2621561;46;20089;31
2023/10/16 05:01:33;;;;;;;4.60;1.67;;;5.40;99.90;;;;;;2603122;54;20842;31
2023/10/16 05:04:34;;;;;;;6.63;1.75;;;5.40;99.90;;;;;;2602737;54;20924;31
2023/10/16 05:07:16;;;;;;;5.68;1.63;;;5.40;99.90;;;;;;2603097;54;20790;31
2023/10/16 05:10:12;;;;;;;5.53;1.87;;;5.40;99.90;;;;;;2602994;54;20053;31
2023/10/16 05:16:28;;;;;;;7.25;2.00;;;5.50;99.90;;;;;;2603167;54;20857;31
2023/10/16 05:19:02;;;;;;;2.90;2.00;;;5.50;99.90;;;;;;2603033;54;20030;31
2023/10/16 05:22:09;;;;;;;3.57;1.73;;;5.50;99.90;;;;;;2701465;39;20497;31
2023/10/16 06:15:41;;;;;;;4.25;1.75;;;6.20;99.90;;;;;;2603712;54;20085;31
2023/10/16 06:18:27;;;;;;;4.47;1.50;;;6.30;99.90;;;;;;2622082;46;20888;31
2023/10/16 06:21:03;;;;;;;4.63;2.03;;;6.30;99.90;;;;;;2603946;54;20053;31
2023/10/16 06:23:42;;;;;;;6.40;1.60;;;6.30;99.90;;;;;;2603666;54;20899;31
2023/10/16 06:26:21;;;;;;;3.97;1.27;;;6.30;99.90;;;;;;2603469;54;20085;31
2023/10/16 06:28:59;;;;;;;2.80;1.30;;;6.40;99.90;;;;;;2621866;46;20790;31
2023/10/16 06:31:49;;;;;;;3.58;1.25;;;6.40;99.90;;;;;;2622579;46;20035;31
2023/10/16 06:34:31;;;;;;;3.13;1.38;;;6.50;99.90;;;;;;2603661;54;20031;31
2023/10/16 06:37:09;;;;;;;5.75;1.10;;;6.60;99.90;;;;;;2603672;54;20030;31
2023/10/16 06:39:45;;;;;;;5.18;1.80;;;6.60;99.90;;;;;;2603724;54;20027;31
2023/10/16 06:42:22;;;;;;;9.27;2.80;;;6.60;99.90;;;;;;2702283;39;20488;31
2023/10/16 06:45:07;;;;;;;14.35;5.20;;;6.60;99.90;;;;;;2603783;54;20034;31
2023/10/16 06:47:47;;;;;;;6.47;2.20;;;6.70;99.90;;;;;;2621961;46;20047;31
2023/10/16 06:50:42;;;;;;;4.00;1.47;;;6.70;99.90;;;;;;2603851;54;20161;31
2023/10/16 06:53:23;;;;;;;6.93;2.08;;;6.70;99.90;;;;;;2702005;39;21350;31
2023/10/16 06:55:59;;;;;;;18.85;6.95;;;6.80;99.90;;;;;;2603552;54;20030;31
2023/10/16 06:58:36;;;;;;;4.40;1.38;;;6.80;99.90;;;;;;2603573;54;20854;31
2023/10/16 07:01:19;;;;;;;3.05;0.85;;;6.80;99.90;;;;;;2603526;54;20826;31
2023/10/16 07:03:54;;;;;;;3.80;0.90;;;6.80;99.90;;;;;;2603339;54;20030;31
2023/10/16 07:06:42;;;;;;;3.88;1.17;;;6.90;99.90;;;;;;2701346;39;21553;31
2023/10/16 07:09:18;;;;;;;2.35;0.90;;;7.00;99.90;;;;;;2603394;54;20855;31
2023/10/16 07:11:54;;;;;;;6.00;0.90;;;7.00;99.90;;;;;;2603451;54;20873;31
2023/10/16 07:14:31;;;;;;;7.20;1.60;;;7.10;99.90;;;;;;2720421;39;20481;31
2023/10/16 07:17:07;;;;;;;6.00;1.58;;;7.20;99.90;;;;;;2621932;46;20081;31
2023/10/16 07:19:45;;;;;;;6.73;1.10;;;7.40;99.90;;;;;;2603436;54;20643;31
2023/10/16 07:22:31;;;;;;;8.65;2.75;;;7.60;99.90;;;;;;2603589;54;20037;31
2023/10/16 07:25:23;;;;;;;12.05;4.53;;;7.80;99.90;;;;;;2603505;54;20096;31
2023/10/16 07:28:01;;;;;;;18.33;5.40;;;8.00;99.90;;;;;;2603502;54;20093;31
2023/10/16 07:30:42;;;;;;;29.80;9.30;;;8.00;99.90;;;;;;2603506;54;20030;31
2023/10/16 07:33:20;;;;;;;78.72;25.13;;;8.10;99.90;;;;;;2603574;54;20108;31
2023/10/16 07:36:00;;;;;;;10.30;3.90;;;8.20;99.90;;;;;;2603510;54;20058;31
2023/10/16 07:38:38;;;;;;;23.95;10.65;;;8.20;99.90;;;;;;2603527;54;20033;31
2023/10/16 07:41:18;;;;;;;11.05;4.15;;;8.20;99.90;;;;;;2603406;54;20034;31
2023/10/16 07:44:11;;;;;;;11.45;3.30;;;8.30;99.90;;;;;;2701721;39;21513;31
2023/10/16 07:46:50;;;;;;;28.00;9.25;;;8.30;99.90;;;;;;2603359;54;20895;31
2023/10/16 07:49:28;;;;;;;24.88;11.18;;;8.30;99.90;;;;;;2603392;54;20030;31
2023/10/16 07:52:05;;;;;;;18.40;7.90;;;8.30;99.90;;;;;;2621889;46;20027;31
2023/10/16 07:54:48;;;;;;;11.32;3.95;;;8.30;99.90;;;;;;2603235;54;20030;31
2023/10/16 08:01:17;;;;;;;18.25;7.28;;;8.30;99.90;;;;;;2603275;54;20650;31
2023/10/16 08:03:56;;;;;;;41.90;14.93;;;8.20;99.90;;;;;;2603086;54;20022;31
2023/10/16 08:06:37;;;;;;;55.72;22.27;;;8.10;99.90;;;;;;2720001;39;20505;31
2023/10/16 08:09:48;;;;;;;14.68;7.20;;;8.10;99.90;;;;;;2603243;54;20913;31
2023/10/16 08:12:35;;;;;;;6.75;3.80;;;8.20;99.90;;;;;;2603222;54;20101;31
2023/10/16 08:15:21;;;;;;;10.60;5.77;;;8.20;99.90;;;;;;2603275;54;20061;31
2023/10/16 08:18:00;;;;;;;9.20;3.80;;;8.40;99.90;;;;;;2603328;54;20909;31
2023/10/16 08:20:49;;;;;;;23.75;9.88;;;8.50;99.90;;;;;;2603428;54;20026;31
2023/10/16 08:23:34;;;;;;;11.82;3.38;;;8.70;99.90;;;;;;2603202;54;20097;31
2023/10/16 08:26:28;;;;;;;7.78;3.75;;;8.80;99.90;;;;;;2603163;54;20814;31
2023/10/16 08:29:19;;;;;;;15.20;6.40;;;9.10;99.90;;;;;;2622080;46;20023;31
2023/10/16 08:32:43;;;;;;;8.05;3.45;;;9.20;99.90;;;;;;2603219;54;20031;31
2023/10/16 08:34:55;;;;;;;6.77;3.20;;;9.40;99.90;;;;;;2621775;46;19954;31
2023/10/16 08:37:35;;;;;;;5.90;2.42;;;9.40;99.90;;;;;;2603178;54;20069;31
2023/10/16 08:40:32;;;;;;;5.95;3.70;;;9.40;99.90;;;;;;2603228;54;20048;31
2023/10/16 08:43:09;;;;;;;4.65;2.33;;;9.80;99.90;;;;;;2603321;54;20840;31
2023/10/16 08:45:55;;;;;;;3.60;1.40;;;10.10;99.90;;;;;;2603054;54;20824;31
2023/10/16 08:48:33;;;;;;;5.50;1.43;;;10.20;99.90;;;;;;2701540;39;20644;31
2023/10/16 08:51:13;;;;;;;10.43;3.97;;;10.10;99.90;;;;;;2602503;54;20023;31
2023/10/16 08:53:58;;;;;;;8.07;2.83;;;10.20;99.90;;;;;;2602337;54;19999;31
2023/10/16 08:56:34;;;;;;;16.05;7.22;;;10.10;99.90;;;;;;2603400;54;20924;31
2023/10/16 08:59:11;;;;;;;5.35;2.15;;;10.20;99.90;;;;;;2621341;46;22376;31
2023/10/16 09:01:55;;;;;;;3.22;1.50;;;10.50;99.90;;;;;;2603119;54;21009;31
2023/10/16 09:04:32;;;;;;;7.00;3.25;;;10.60;99.90;;;;;;2621324;46;20899;31
2023/10/16 09:07:11;;;;;;;12.65;6.07;;;10.90;99.90;;;;;;2621192;46;20026;31
2023/10/16 09:09:48;;;;;;;9.80;3.75;;;10.90;99.90;;;;;;2603260;54;20054;31
2023/10/16 09:12:44;;;;;;;21.65;8.40;;;10.80;99.90;;;;;;2701460;39;20669;31
2023/10/16 09:15:24;;;;;;;7.88;2.83;;;10.80;99.90;;;;;;2621421;46;20117;31
2023/10/16 09:18:09;;;;;;;10.10;3.55;;;10.80;99.90;;;;;;2602420;54;20018;31
2023/10/16 09:20:45;;;;;;;12.13;4.97;;;10.70;99.90;;;;;;2602895;54;20054;31
2023/10/16 09:23:23;;;;;;;;;;;10.60;99.90;;;;;;2603328;54;20851;31
2023/10/16 09:26:02;;;;;;;11.38;5.03;;;10.60;99.90;;;;;;2602824;54;19941;31
2023/10/16 09:28:37;;;;;;;;;;;10.50;99.90;;;;;;2603337;54;20026;31
2023/10/16 09:31:18;;;;;;;3.42;1.45;;;10.50;99.90;;;;;;2602840;54;19946;31
2023/10/16 09:33:58;;;;;;;4.70;1.55;;;10.40;99.90;;;;;;2603095;54;20845;31
2023/10/16 09:36:36;;;;;;;6.60;2.60;;;10.40;99.90;;;;;;2602229;54;20061;31
2023/10/16 09:39:21;;;;;;;4.80;1.90;;;10.40;99.90;;;;;;2602249;54;20044;31
2023/10/16 09:42:11;;;;;;;3.20;1.60;;;10.50;99.90;;;;;;2621619;47;20026;31
2023/10/16 09:44:56;;;;;;;9.05;3.78;;;10.50;99.90;;;;;;2603164;54;20038;31
2023/10/16 09:47:35;;;;;;;4.35;1.20;;;10.50;99.90;;;;;;2603017;54;20806;31
2023/10/16 09:50:19;;;;;;;10.50;3.33;;;10.50;99.90;;;;;;2602901;54;20053;31
2023/10/16 09:52:54;;;;;;;7.25;1.90;;;10.50;99.90;;;;;;2621432;47;20050;31
2023/10/16 09:55:30;;;;;;;4.88;1.65;;;10.70;99.90;;;;;;2621432;47;20037;31
2023/10/16 09:58:05;;;;;;;;;;;10.70;99.90;;;;;;2603292;54;20829;31
2023/10/16 10:00:46;;;;;;;6.93;2.63;;;10.70;99.90;;;;;;2603009;54;19960;31
2023/10/16 10:03:23;;;;;;;8.23;1.92;;;10.90;99.90;;;;;;2621430;47;20081;31
2023/10/16 10:06:20;;;;;;;8.70;2.95;;;11.20;99.90;;;;;;2602927;54;20798;31
2023/10/16 10:09:22;;;;;;;6.20;2.00;;;11.30;99.90;;;;;;2603113;54;20026;31
2023/10/16 10:12:13;;;;;;;5.60;1.40;;;11.40;99.90;;;;;;2603049;54;20026;31
2023/10/16 10:14:49;;;;;;;7.93;2.45;;;11.40;99.90;;;;;;2602821;54;21025;31
2023/10/16 10:17:29;;;;;;;;;;;11.40;99.90;;;;;;2603072;54;20031;31
2023/10/16 10:20:09;;;;;;;7.78;2.20;;;11.40;99.90;;;;;;2602732;54;20413;31
2023/10/16 10:22:48;;;;;;;7.53;2.40;;;11.30;99.90;;;;;;2603028;54;19957;31
2023/10/16 10:25:35;;;;;;;6.85;2.47;;;11.20;99.90;;;;;;2621388;47;20105;31
2023/10/16 10:28:22;;;;;;;8.75;2.85;;;11.20;99.90;;;;;;2602978;54;20945;31
2023/10/16 10:31:07;;;;;;;4.63;1.50;;;11.30;99.90;;;;;;2602577;54;21005;31
2023/10/16 10:33:42;;;;;;;5.18;1.60;;;11.30;99.90;;;;;;2621165;47;20886;31
2023/10/16 10:36:33;;;;;;;;;;;11.60;99.90;;;;;;2603170;54;20022;31
2023/10/16 10:39:47;;;;;;;15.30;4.30;;;11.80;99.90;;;;;;2621450;47;19934;31
2023/10/16 10:45:21;;;;;;;7.50;1.30;;;11.80;99.90;;;;;;2603415;54;21238;31
2023/10/16 10:47:59;;;;;;;2.92;0.93;;;11.70;99.90;;;;;;2603761;54;20030;31
2023/10/16 10:50:38;;;;;;;7.00;1.05;;;11.60;99.90;;;;;;2603836;54;20027;31
2023/10/16 10:53:17;;;;;;;2.77;1.00;;;11.50;99.90;;;;;;2603656;54;20856;31
2023/10/16 10:56:07;;;;;;;7.00;1.30;;;11.60;99.90;;;;;;2603630;54;20027;31
2023/10/16 10:58:45;;;;;;;7.50;2.30;;;11.80;99.90;;;;;;2603544;54;20986;31
2023/10/16 11:01:26;;;;;;;2.77;0.83;;;11.80;99.90;;;;;;2621814;46;20022;31
2023/10/16 11:04:09;;;;;;;4.17;0.53;;;11.70;99.90;;;;;;2622061;46;20238;31
2023/10/16 11:06:50;;;;;;;15.40;5.70;;;11.70;99.90;;;;;;2622222;46;20266;31
2023/10/16 11:12:44;;;;;;;58.00;22.45;;;11.60;99.90;;;;;;2603429;54;20885;31
2023/10/16 11:15:22;;;;;;;27.50;16.77;;;11.70;99.90;;;;;;2621865;46;20026;31
2023/10/16 11:18:05;;;;;;;13.93;5.27;;;11.70;99.90;;;;;;2603775;54;20834;31
2023/10/16 11:20:45;;;;;;;5.20;1.55;;;11.70;99.90;;;;;;2603652;54;21172;31
2023/10/16 11:23:25;;;;;;;6.50;2.75;;;11.70;99.90;;;;;;2603764;54;20901;31
2023/10/16 11:26:05;;;;;;;5.85;3.45;;;11.70;99.90;;;;;;2603395;54;20056;31
2023/10/16 11:28:48;;;;;;;7.68;1.15;;;11.60;99.90;;;;;;2603349;54;20030;31
2023/10/16 11:31:25;;;;;;;2.40;0.90;;;11.40;99.90;;;;;;2603177;54;20933;31
2023/10/16 11:34:11;;;;;;;3.30;0.57;;;11.20;99.90;;;;;;2603433;54;20042;31
2023/10/16 11:36:50;;;;;;;3.97;0.70;;;11.10;99.90;;;;;;2603358;54;20081;31
2023/10/16 11:39:28;;;;;;;5.47;1.25;;;11.10;99.90;;;;;;2603395;54;20853;31
2023/10/16 11:42:04;;;;;;;3.35;1.70;;;11.10;99.90;;;;;;2603441;54;20960;31
2023/10/16 11:44:44;;;;;;;2.30;1.05;;;11.10;99.90;;;;;;2621506;46;20109;31
2023/10/16 11:47:22;;;;;;;6.53;3.33;;;11.00;99.90;;;;;;2603354;54;20856;31
2023/10/16 11:49:58;;;;;;;7.97;2.83;;;11.00;99.90;;;;;;2603328;54;20026;31
2023/10/16 11:52:35;;;;;;;1.80;0.80;;;11.10;99.90;;;;;;2602443;54;20109;31
2023/10/16 11:55:12;;;;;;;2.83;1.23;;;11.20;99.90;;;;;;2621855;46;20063;31
2023/10/16 11:57:52;;;;;;;2.50;0.80;;;11.40;99.90;;;;;;2701768;39;21451;31
2023/10/16 12:00:35;;;;;;;5.15;2.60;;;11.60;99.90;;;;;;2621687;46;21154;31
2023/10/16 12:03:14;;;;;;;4.25;1.80;;;11.70;99.90;;;;;;2603411;54;20037;31
2023/10/16 12:05:51;;;;;;;10.32;2.60;;;11.70;99.90;;;;;;2602561;54;20085;31
2023/10/16 12:08:30;;;;;;;4.27;1.07;;;11.60;99.90;;;;;;2618401;46;20374;31
2023/10/16 12:11:07;;;;;;;4.00;0.80;;;11.40;99.90;;;;;;2603406;54;20038;31
2023/10/16 12:13:43;;;;;;;5.07;1.70;;;11.20;99.90;;;;;;2603405;54;20034;31
2023/10/16 12:16:24;;;;;;;3.88;1.58;;;10.90;99.90;;;;;;2622018;46;20125;31
2023/10/16 12:19:11;;;;;;;3.40;1.50;;;10.70;99.90;;;;;;2603556;54;20089;31
2023/10/16 12:21:47;;;;;;;5.00;1.15;;;10.50;99.90;;;;;;2603522;54;20881;31
2023/10/16 12:24:21;;;;;;;;;;;10.20;99.90;;;;;;2603400;54;22464;31
2023/10/16 12:27:01;;;;;;;1.48;0.60;;;10.10;99.90;;;;;;2621894;46;19981;31
2023/10/16 12:29:41;;;;;;;7.75;1.50;;;10.00;99.90;;;;;;2603338;54;20035;31
2023/10/16 12:32:16;;;;;;;5.25;2.53;;;9.90;99.90;;;;;;2621653;46;20033;31
2023/10/16 12:34:57;;;;;;;6.85;4.15;;;9.90;99.90;;;;;;2603344;54;20957;31
2023/10/16 12:37:36;;;;;;;13.38;7.05;;;9.90;99.90;;;;;;2602426;54;20929;31
2023/10/16 12:43:05;;;;;;;58.03;29.80;;;9.90;99.90;;;;;;2603230;54;20036;31
2023/10/16 12:48:17;;;;;;;9.70;3.80;;;10.00;99.90;;;;;;2603128;54;20089;31
2023/10/16 12:50:59;;;;;;;30.00;11.50;;;10.00;99.90;;;;;;2603112;54;20067;31
2023/10/16 12:53:55;;;;;;;10.90;4.03;;;10.10;99.90;;;;;;2603408;54;20118;31
2023/10/16 12:56:32;;;;;;;28.95;10.95;;;10.10;99.90;;;;;;2603253;54;20034;31
2023/10/16 12:59:08;;;;;;;19.88;7.00;;;10.10;99.90;;;;;;2603214;54;20077;31
2023/10/16 13:01:45;;;;;;;19.20;7.38;;;10.10;99.90;;;;;;2603059;54;20798;31
2023/10/16 13:04:25;;;;;;;15.50;4.05;;;10.10;99.90;;;;;;2621545;46;20105;31
2023/10/16 13:07:05;;;;;;;56.30;21.77;;;10.20;99.90;;;;;;2621259;46;20037;31
2023/10/16 13:09:44;;;;;;;20.85;9.25;;;10.20;99.90;;;;;;2603268;54;20030;31
2023/10/16 13:12:21;;;;;;;18.30;6.93;;;10.30;99.90;;;;;;2621339;46;20133;31
2023/10/16 13:15:00;;;;;;;20.25;6.65;;;10.30;99.90;;;;;;2603363;54;20038;31
2023/10/16 13:17:37;;;;;;;14.48;5.95;;;10.30;99.90;;;;;;2701486;39;20485;31
2023/10/16 13:20:17;;;;;;;9.02;3.30;;;10.20;99.90;;;;;;2602856;54;20814;31
2023/10/16 13:22:57;;;;;;;14.20;4.88;;;10.20;99.90;;;;;;2603064;54;20132;31
2023/10/16 13:25:34;;;;;;;40.63;16.45;;;10.10;99.90;;;;;;2621282;46;20821;31
2023/10/16 13:28:11;;;;;;;18.05;7.70;;;10.10;99.90;;;;;;2603021;54;20033;31
2023/10/16 13:30:48;;;;;;;23.30;10.80;;;10.10;99.90;;;;;;2603115;54;20085;31
2023/10/16 13:33:26;;;;;;;38.50;14.90;;;10.10;99.90;;;;;;2603084;54;20034;31
2023/10/16 13:36:03;;;;;;;8.40;3.90;;;10.10;99.90;;;;;;2602887;54;20082;31
2023/10/16 13:38:44;;;;;;;7.10;3.15;;;10.10;99.90;;;;;;2621243;47;20912;31
2023/10/16 13:41:25;;;;;;;7.55;3.17;;;10.10;99.90;;;;;;2603002;54;20844;31
2023/10/16 13:46:39;;;;;;;14.52;7.38;;;10.10;99.90;;;;;;2603006;54;20888;31
2023/10/16 13:49:18;;;;;;;11.85;7.45;;;10.10;99.90;;;;;;2602914;54;20085;31
2023/10/16 13:51:56;;;;;;;3.70;1.98;;;10.10;99.90;;;;;;2602962;54;20036;31
2023/10/16 13:54:38;;;;;;;6.15;4.10;;;10.10;99.90;;;;;;2602345;54;20925;31
2023/10/16 13:57:16;;;;;;;3.28;1.92;;;10.20;99.90;;;;;;2602526;54;20033;31
2023/10/16 13:59:53;;;;;;;1.95;0.85;;;10.20;99.90;;;;;;2621306;47;20030;31
2023/10/16 14:02:34;;;;;;;1.15;0.65;;;10.10;99.90;;;;;;2603184;54;20030;31
2023/10/16 14:05:13;;;;;;;4.53;1.92;;;10.00;99.90;;;;;;2621840;47;20068;31
2023/10/16 14:07:49;;;;;;;2.70;0.63;;;9.90;99.90;;;;;;2602852;54;20031;31
2023/10/16 14:10:27;;;;;;;1.80;1.02;;;9.70;99.90;;;;;;2602786;54;20062;31
2023/10/16 14:13:11;;;;;;;2.78;1.00;;;9.60;99.90;;;;;;2602733;54;20073;31
2023/10/16 14:15:47;;;;;;;3.45;2.10;;;9.50;99.90;;;;;;2603642;54;20818;31
2023/10/16 14:18:25;;;;;;;2.70;0.80;;;9.50;99.90;;;;;;2702301;39;20487;31
2023/10/16 14:21:08;;;;;;;1.98;1.00;;;9.40;99.90;;;;;;2603641;54;20085;31
2023/10/16 14:23:46;;;;;;;3.20;0.60;;;9.40;99.90;;;;;;2603466;54;20037;31
2023/10/16 14:26:27;;;;;;;3.70;0.90;;;9.40;99.90;;;;;;2603725;54;20028;31
2023/10/16 14:29:06;;;;;;;14.23;6.70;;;9.30;99.90;;;;;;2622293;46;20850;31
2023/10/16 14:31:46;;;;;;;8.00;3.35;;;9.30;99.90;;;;;;2603621;54;20890;31
2023/10/16 14:34:22;;;;;;;4.00;1.33;;;9.30;99.90;;;;;;2603524;54;20077;31
2023/10/16 14:37:02;;;;;;;2.25;0.93;;;9.40;99.90;;;;;;2602837;54;20031;31
2023/10/16 14:39:39;;;;;;;2.97;1.25;;;9.40;99.90;;;;;;2622269;46;20039;31
2023/10/16 14:42:19;;;;;;;2.97;1.07;;;9.40;99.90;;;;;;2603585;54;20085;31
2023/10/16 14:44:55;;;;;;;1.73;0.75;;;9.40;99.90;;;;;;2603512;54;20086;31
2023/10/16 14:47:36;;;;;;;1.60;0.70;;;9.30;99.90;;;;;;2621985;46;20042;31
2023/10/16 14:50:14;;;;;;;4.50;1.00;;;9.30;99.90;;;;;;2603506;54;20577;31
2023/10/16 14:52:50;;;;;;;4.10;1.35;;;9.30;99.90;;;;;;2603553;54;20940;31
2023/10/16 14:55:29;;;;;;;2.58;1.38;;;9.30;99.90;;;;;;2603632;54;20896;31
2023/10/16 14:58:10;;;;;;;2.30;1.27;;;9.30;99.90;;;;;;2603506;54;20048;31
2023/10/16 15:01:15;;;;;;;3.53;0.70;;;9.30;99.90;;;;;;2603533;54;19934;31
2023/10/16 15:03:54;;;;;;;5.07;0.93;;;9.20;99.90;;;;;;2603528;54;20133;31
2023/10/16 15:06:31;;;;;;;3.63;1.30;;;9.20;99.90;;;;;;2603668;54;19950;31
2023/10/16 15:09:16;;;;;;;2.45;1.00;;;9.20;99.90;;;;;;2603634;54;20027;31
2023/10/16 15:11:51;;;;;;;4.28;1.15;;;9.20;99.90;;;;;;2603382;54;20034;31
2023/10/16 15:14:33;;;;;;;8.23;2.10;;;9.10;99.90;;;;;;2621128;46;20045;31
2023/10/16 15:17:10;;;;;;;7.53;2.63;;;9.10;99.90;;;;;;2615450;46;20915;31
2023/10/16 15:19:47;;;;;;;6.90;2.30;;;9.10;99.90;;;;;;2603465;54;20959;31
2023/10/16 15:22:22;;;;;;;8.63;2.65;;;9.10;99.90;;;;;;2621568;46;20938;31
2023/10/16 15:25:02;;;;;;;6.50;1.98;;;9.10;99.90;;;;;;2603276;54;20038;31
2023/10/16 15:27:41;;;;;;;4.40;1.40;;;9.10;99.90;;;;;;2621895;46;20032;31
2023/10/16 15:30:24;;;;;;;4.50;1.50;;;9.10;99.90;;;;;;2702019;39;20545;31
2023/10/16 15:33:01;;;;;;;2.42;0.90;;;9.00;99.90;;;;;;2622211;46;20027;31
2023/10/16 15:35:38;;;;;;;2.60;1.30;;;9.00;99.90;;;;;;2603504;54;20826;31
2023/10/16 15:38:16;;;;;;;3.13;1.37;;;8.90;99.90;;;;;;2603607;54;20836;31
2023/10/16 15:40:55;;;;;;;2.92;1.20;;;9.00;99.90;;;;;;2702189;39;20559;31
2023/10/16 15:43:32;;;;;;;3.20;1.35;;;8.90;99.90;;;;;;2603345;54;20042;31